Time;durP1;ratioP1;P1;durP2;ratioP2;P2;SDS_P1;SDS_P2;PMS_P1;PMS_P2;Temp;Humidity;BMP_temperature;BMP_pressure;BME280_temperature;BME280_humidity;BME280_pressure;Samples;Min_cycle;Max_cycle;Signal;HPM_P1;HPM_P2
2022/06/25 00:01:23;;;;;;;7.35;3.20;;;18.70;79.70;;;;;;5016040;28;20038;-77
2022/06/25 00:03:50;;;;;;;6.88;3.30;;;18.70;79.80;;;;;;5021595;28;20088;-78
2022/06/25 00:06:15;;;;;;;7.72;3.15;;;18.70;79.70;;;;;;5013654;28;20088;-78
2022/06/25 00:08:41;;;;;;;9.10;3.90;;;18.70;79.80;;;;;;5037566;28;20041;-78
2022/06/25 00:11:07;;;;;;;9.68;3.38;;;18.70;79.60;;;;;;5037093;28;20122;-77
2022/06/25 00:13:34;;;;;;;14.23;3.35;;;18.60;79.60;;;;;;5025685;28;20775;-77
2022/06/25 00:16:00;;;;;;;6.60;3.50;;;18.70;79.60;;;;;;5016021;28;20054;-77
2022/06/25 00:18:26;;;;;;;6.65;3.53;;;18.60;79.60;;;;;;5020599;28;20037;-77
2022/06/25 00:20:52;;;;;;;6.75;3.38;;;18.60;79.70;;;;;;5021432;28;20553;-77
2022/06/25 00:23:18;;;;;;;7.65;3.40;;;18.60;79.60;;;;;;5018264;28;20372;-76
2022/06/25 00:25:44;;;;;;;8.95;3.80;;;18.60;79.70;;;;;;5020812;28;20091;-76
2022/06/25 00:28:09;;;;;;;9.52;3.85;;;18.60;79.80;;;;;;5022749;28;20107;-76
2022/06/25 00:30:37;;;;;;;7.85;3.40;;;18.50;79.70;;;;;;5018724;28;20472;-76
2022/06/25 00:33:03;;;;;;;7.63;3.88;;;18.50;79.80;;;;;;5019396;28;20535;-76
2022/06/25 00:35:29;;;;;;;5.35;3.38;;;18.50;79.80;;;;;;5019112;28;20037;-76
2022/06/25 00:37:54;;;;;;;8.52;4.05;;;18.40;79.80;;;;;;5020770;28;20037;-76
2022/06/25 00:40:20;;;;;;;7.38;3.63;;;18.40;79.80;;;;;;5018437;28;20498;-75
2022/06/25 00:42:47;;;;;;;10.45;4.03;;;18.40;79.60;;;;;;5019205;28;20036;-76
2022/06/25 00:45:13;;;;;;;7.07;3.50;;;18.30;79.50;;;;;;5016725;28;20444;-76
2022/06/25 00:47:39;;;;;;;9.77;3.75;;;18.30;79.30;;;;;;5019997;28;20634;-76
2022/06/25 00:50:05;;;;;;;7.53;3.80;;;18.20;79.50;;;;;;5016419;28;20433;-76
2022/06/25 00:52:35;;;;;;;6.32;3.80;;;18.20;79.40;;;;;;5018088;28;20030;-76
2022/06/25 00:55:10;;;;;;;8.60;3.30;;;18.20;79.00;;;;;;5022139;28;20129;-77
2022/06/25 00:57:39;;;;;;;8.38;3.05;;;18.20;79.00;;;;;;5014802;28;20521;-77
2022/06/25 01:00:08;;;;;;;8.80;3.83;;;18.20;78.80;;;;;;5023271;28;20033;-77
2022/06/25 01:02:34;;;;;;;7.70;3.65;;;18.30;78.50;;;;;;5017864;28;20064;-77
2022/06/25 01:05:04;;;;;;;9.00;3.60;;;18.20;78.60;;;;;;5019769;28;20037;-77
2022/06/25 01:07:30;;;;;;;8.18;3.28;;;18.30;78.30;;;;;;5020018;28;20058;-77
2022/06/25 01:09:56;;;;;;;9.48;3.35;;;18.30;78.10;;;;;;5017173;28;20038;-77
2022/06/25 01:12:23;;;;;;;6.20;3.58;;;18.20;78.10;;;;;;5013188;28;20080;-77
2022/06/25 01:15:09;;;;;;;9.10;3.75;;;18.20;78.10;;;;;;5016880;28;20072;-77
2022/06/25 01:17:41;;;;;;;7.07;3.40;;;18.30;78.10;;;;;;5015980;28;20040;-77
2022/06/25 01:20:07;;;;;;;7.13;3.72;;;18.40;78.00;;;;;;5015809;28;20442;-78
2022/06/25 01:22:33;;;;;;;8.68;3.75;;;18.40;78.00;;;;;;5010994;28;20365;-78
2022/06/25 01:24:59;;;;;;;8.18;3.45;;;18.40;78.00;;;;;;5018193;28;20309;-77
2022/06/25 01:27:25;;;;;;;10.93;3.80;;;18.50;78.00;;;;;;5015049;28;20049;-77
2022/06/25 01:29:51;;;;;;;8.38;3.40;;;18.50;78.00;;;;;;5018574;28;20049;-78
2022/06/25 01:32:17;;;;;;;7.40;3.58;;;18.50;78.00;;;;;;5037272;28;20025;-77
2022/06/25 01:34:42;;;;;;;10.85;3.97;;;18.50;78.00;;;;;;5027032;28;20042;-77
2022/06/25 01:37:08;;;;;;;8.63;3.75;;;18.40;78.20;;;;;;5019667;28;20041;-76
2022/06/25 01:39:34;;;;;;;7.97;3.55;;;18.30;78.30;;;;;;5016972;28;20072;-77
2022/06/25 01:42:00;;;;;;;9.80;4.45;;;18.40;78.50;;;;;;5016939;28;20084;-77
2022/06/25 01:44:28;;;;;;;8.65;3.40;;;18.30;78.60;;;;;;5018948;28;20091;-77
2022/06/25 01:46:57;;;;;;;10.25;3.88;;;18.30;78.90;;;;;;5013323;28;20378;-76
2022/06/25 01:49:23;;;;;;;7.20;3.22;;;18.20;78.70;;;;;;5018239;28;20600;-77
2022/06/25 01:51:49;;;;;;;7.93;3.05;;;18.20;78.70;;;;;;5010836;28;20111;-77
2022/06/25 01:54:15;;;;;;;9.38;3.20;;;18.20;78.70;;;;;;5019127;28;20105;-77
2022/06/25 01:56:41;;;;;;;8.23;3.13;;;18.20;78.90;;;;;;5019952;28;20041;-77
2022/06/25 01:59:07;;;;;;;6.63;3.17;;;18.20;78.90;;;;;;5027470;28;20037;-77
2022/06/25 02:01:33;;;;;;;6.13;2.50;;;18.20;78.80;;;;;;5027402;28;20041;-77
2022/06/25 02:03:59;;;;;;;8.55;3.20;;;18.20;78.80;;;;;;5018151;28;20437;-77
2022/06/25 02:06:24;;;;;;;10.27;3.30;;;18.20;78.90;;;;;;5017777;28;20044;-76
2022/06/25 02:08:50;;;;;;;7.68;3.30;;;18.10;79.10;;;;;;5021807;28;20037;-76
2022/06/25 02:11:15;;;;;;;9.18;3.75;;;18.10;79.10;;;;;;5018816;28;20053;-78
2022/06/25 02:13:41;;;;;;;8.38;3.67;;;18.20;79.20;;;;;;5016710;28;20037;-78
2022/06/25 02:16:07;;;;;;;7.78;2.70;;;18.20;79.20;;;;;;5021408;28;20045;-77
2022/06/25 02:18:33;;;;;;;7.20;3.22;;;18.10;79.10;;;;;;5019857;28;20052;-78
2022/06/25 02:20:59;;;;;;;9.95;3.70;;;18.10;78.90;;;;;;5020800;28;20037;-77
2022/06/25 02:23:24;;;;;;;5.32;2.85;;;18.20;79.00;;;;;;5020279;28;20561;-78
2022/06/25 02:25:50;;;;;;;6.63;3.40;;;18.10;79.20;;;;;;5019533;28;20132;-77
2022/06/25 02:28:16;;;;;;;10.13;3.30;;;18.10;79.10;;;;;;5018757;28;20523;-77
2022/06/25 02:30:43;;;;;;;8.38;3.05;;;18.10;78.90;;;;;;5018331;28;20037;-77
2022/06/25 02:33:13;;;;;;;7.20;2.78;;;18.20;79.20;;;;;;5017974;28;20065;-77
2022/06/25 02:35:41;;;;;;;8.48;3.28;;;18.10;79.20;;;;;;5020426;28;20037;-77
2022/06/25 02:38:08;;;;;;;9.68;3.25;;;18.10;79.00;;;;;;5014497;28;20119;-77
2022/06/25 02:40:33;;;;;;;7.40;2.80;;;18.20;78.90;;;;;;5017517;28;20389;-78
2022/06/25 02:43:00;;;;;;;10.43;3.33;;;18.10;78.80;;;;;;5022066;28;20041;-77
2022/06/25 02:45:26;;;;;;;7.38;3.20;;;18.20;78.90;;;;;;5016871;28;20045;-77
2022/06/25 02:47:52;;;;;;;6.47;3.08;;;18.10;79.00;;;;;;5022082;28;20051;-77
2022/06/25 02:50:18;;;;;;;6.40;2.97;;;18.10;79.20;;;;;;5020938;28;20062;-77
2022/06/25 02:52:43;;;;;;;7.57;2.92;;;18.10;79.20;;;;;;5017899;28;20488;-78
2022/06/25 02:55:09;;;;;;;6.60;3.17;;;18.10;79.30;;;;;;5021756;28;20041;-77
2022/06/25 03:00:19;;;;;;;6.45;2.67;;;18.10;79.30;;;;;;5020730;28;20443;-77
2022/06/25 03:02:45;;;;;;;8.70;3.35;;;18.10;79.20;;;;;;5019375;28;20124;-77
2022/06/25 03:05:11;;;;;;;6.55;2.47;;;18.10;79.20;;;;;;5016576;28;20055;-77
2022/06/25 03:07:37;;;;;;;7.35;2.90;;;18.10;79.30;;;;;;5022112;28;20168;-77
2022/06/25 03:10:03;;;;;;;6.32;2.72;;;18.10;79.40;;;;;;5014415;28;20038;-78
2022/06/25 03:12:28;;;;;;;6.93;3.00;;;18.10;79.60;;;;;;5019465;28;20065;-77
2022/06/25 03:14:54;;;;;;;6.93;2.65;;;18.10;79.60;;;;;;5018288;28;20077;-78
2022/06/25 03:17:20;;;;;;;6.65;3.08;;;18.10;79.60;;;;;;5018730;28;20736;-77
2022/06/25 03:19:45;;;;;;;7.30;2.95;;;18.10;79.60;;;;;;5016185;28;20498;-77
2022/06/25 03:22:11;;;;;;;4.97;2.72;;;18.10;79.70;;;;;;5023040;28;20045;-77
2022/06/25 03:24:37;;;;;;;6.93;2.60;;;18.10;79.70;;;;;;5014197;28;20048;-77
2022/06/25 03:27:02;;;;;;;8.73;2.75;;;18.10;79.60;;;;;;5018644;28;20076;-77
2022/06/25 03:29:28;;;;;;;6.88;2.92;;;18.10;79.70;;;;;;5022083;28;20152;-77
2022/06/25 03:31:54;;;;;;;7.90;2.80;;;18.10;79.70;;;;;;5018725;28;20037;-77
2022/06/25 03:34:20;;;;;;;7.93;2.90;;;18.10;79.90;;;;;;5019340;28;20556;-77
2022/06/25 03:36:47;;;;;;;6.07;2.58;;;18.00;80.00;;;;;;5023700;28;20041;-77
2022/06/25 03:39:12;;;;;;;7.90;2.50;;;18.10;79.90;;;;;;5019785;28;20034;-77
2022/06/25 03:41:38;;;;;;;6.25;2.50;;;18.10;80.00;;;;;;5019492;28;20042;-77
2022/06/25 03:44:09;;;;;;;6.15;3.10;;;18.10;80.10;;;;;;5018603;28;20135;-77
2022/06/25 03:46:35;;;;;;;6.88;2.45;;;18.10;80.20;;;;;;5015870;28;20072;-77
2022/06/25 03:49:02;;;;;;;7.30;3.05;;;18.10;80.30;;;;;;5018659;28;20041;-78
2022/06/25 03:51:28;;;;;;;5.97;2.50;;;18.10;80.40;;;;;;5020860;28;20034;-77
2022/06/25 03:53:54;;;;;;;7.57;2.67;;;18.10;80.30;;;;;;5038624;28;20026;-77
2022/06/25 03:56:20;;;;;;;5.85;2.75;;;18.10;80.20;;;;;;5030521;28;20052;-77
2022/06/25 03:58:47;;;;;;;6.95;2.45;;;18.10;80.30;;;;;;5012598;28;20068;-77
2022/06/25 04:01:13;;;;;;;8.50;2.95;;;18.10;80.40;;;;;;5008121;28;20545;-77
2022/06/25 04:03:42;;;;;;;6.63;2.50;;;18.10;80.50;;;;;;5020108;28;20066;-78
2022/06/25 04:06:09;;;;;;;7.38;3.00;;;18.10;80.50;;;;;;5021749;28;20119;-76
2022/06/25 04:08:35;;;;;;;5.75;2.60;;;18.20;80.50;;;;;;5020162;28;20077;-76
2022/06/25 04:11:01;;;;;;;8.77;2.83;;;18.20;80.30;;;;;;5022244;28;20162;-76
2022/06/25 04:13:27;;;;;;;5.63;2.22;;;18.20;80.50;;;;;;5021045;28;20050;-76
2022/06/25 04:15:53;;;;;;;6.43;2.50;;;18.20;80.50;;;;;;5020467;28;20056;-77
2022/06/25 04:18:19;;;;;;;4.38;2.08;;;18.20;80.40;;;;;;5015733;28;20029;-77
2022/06/25 04:20:45;;;;;;;6.10;2.25;;;18.20;80.60;;;;;;5020982;28;20045;-77
2022/06/25 04:23:11;;;;;;;4.93;2.17;;;18.30;80.50;;;;;;5021237;28;20090;-77
2022/06/25 04:25:37;;;;;;;6.22;2.88;;;18.20;80.40;;;;;;5019478;28;20030;-77
2022/06/25 04:30:55;;;;;;;5.35;2.42;;;18.30;80.40;;;;;;5001444;28;20036;-77
2022/06/25 04:33:21;;;;;;;6.10;2.47;;;18.30;80.40;;;;;;5019380;28;20067;-77
2022/06/25 04:35:46;;;;;;;6.30;2.45;;;18.40;80.40;;;;;;5017708;28;20044;-77
2022/06/25 04:38:12;;;;;;;6.80;2.53;;;18.40;80.40;;;;;;5017672;28;20060;-77
2022/06/25 04:40:38;;;;;;;4.93;2.55;;;18.50;80.40;;;;;;5019320;28;20469;-77
2022/06/25 04:43:03;;;;;;;6.97;2.30;;;18.40;80.00;;;;;;5019425;28;20040;-78
2022/06/25 04:45:29;;;;;;;5.60;2.70;;;18.40;80.20;;;;;;5020497;28;20056;-77
2022/06/25 04:48:04;;;;;;;5.05;2.50;;;18.40;80.30;;;;;;5016812;28;20072;-77
2022/06/25 04:50:30;;;;;;;6.05;2.47;;;18.40;80.40;;;;;;5018699;28;20049;-78
2022/06/25 04:52:56;;;;;;;5.75;2.63;;;18.30;80.50;;;;;;5018291;28;20045;-77
2022/06/25 04:55:22;;;;;;;7.68;2.78;;;18.30;80.50;;;;;;5019744;28;20037;-77
2022/06/25 04:57:47;;;;;;;9.43;2.53;;;18.30;81.40;;;;;;5018075;28;20048;-77
2022/06/25 05:00:14;;;;;;;7.18;2.38;;;18.40;81.80;;;;;;5017078;28;20046;-77
2022/06/25 05:02:40;;;;;;;6.53;2.60;;;18.30;82.20;;;;;;5018906;28;20515;-77
2022/06/25 05:05:06;;;;;;;7.10;3.03;;;18.30;82.80;;;;;;5019902;28;20033;-76
2022/06/25 05:07:32;;;;;;;6.25;2.83;;;18.20;83.20;;;;;;5016602;28;20225;-77
2022/06/25 05:09:58;;;;;;;5.93;2.08;;;18.10;83.20;;;;;;5016866;28;20037;-77
2022/06/25 05:15:08;;;;;;;3.67;1.73;;;17.70;80.40;;;;;;5019070;28;20064;-76
2022/06/25 05:17:35;;;;;;;7.32;1.90;;;17.70;80.30;;;;;;5024082;28;20046;-76
2022/06/25 05:20:00;;;;;;;3.45;1.77;;;17.70;80.50;;;;;;5029558;28;20053;-77
2022/06/25 05:22:26;;;;;;;4.95;1.70;;;17.70;79.80;;;;;;5019480;28;20037;-77
2022/06/25 05:24:52;;;;;;;6.35;1.55;;;17.60;78.70;;;;;;5021585;28;20469;-77
2022/06/25 05:27:18;;;;;;;5.40;1.55;;;17.60;78.90;;;;;;5022085;28;20053;-77
2022/06/25 05:29:44;;;;;;;4.70;1.75;;;17.60;78.90;;;;;;5020030;28;20504;-77
2022/06/25 05:32:09;;;;;;;3.28;1.40;;;17.60;78.70;;;;;;5013812;28;20431;-77
2022/06/25 05:34:35;;;;;;;5.75;1.80;;;17.60;78.00;;;;;;5018893;28;20033;-77
2022/06/25 05:37:01;;;;;;;4.05;1.58;;;17.60;77.90;;;;;;5021504;28;20068;-77
2022/06/25 05:39:26;;;;;;;6.00;1.45;;;17.60;77.90;;;;;;5013617;28;20614;-76
2022/06/25 05:41:52;;;;;;;7.68;1.75;;;17.60;77.60;;;;;;5021072;28;20220;-75
2022/06/25 05:44:18;;;;;;;4.65;1.67;;;17.60;77.80;;;;;;5025689;28;20029;-76
2022/06/25 05:46:44;;;;;;;6.50;1.75;;;17.60;77.90;;;;;;5022933;28;20068;-76
2022/06/25 05:49:10;;;;;;;5.22;1.88;;;17.60;78.10;;;;;;5021058;28;20053;-77
2022/06/25 05:51:36;;;;;;;3.75;1.58;;;17.60;78.40;;;;;;5021402;28;20034;-77
2022/06/25 05:54:01;;;;;;;5.07;1.70;;;17.60;78.70;;;;;;5016922;28;20110;-77
2022/06/25 05:56:27;;;;;;;8.25;2.30;;;17.60;78.10;;;;;;5020387;28;20052;-77
2022/06/25 05:58:53;;;;;;;6.95;2.35;;;17.60;78.60;;;;;;5015926;28;20129;-78
2022/06/25 06:01:18;;;;;;;7.53;2.17;;;17.60;78.20;;;;;;5016530;28;20041;-76
2022/06/25 06:03:44;;;;;;;4.93;1.80;;;17.60;78.50;;;;;;5015076;28;20087;-77
2022/06/25 06:06:10;;;;;;;5.45;1.83;;;17.60;78.40;;;;;;5014161;28;20042;-77
2022/06/25 06:08:35;;;;;;;5.10;2.25;;;17.60;78.10;;;;;;5012097;28;20137;-79
2022/06/25 06:11:01;;;;;;;6.30;1.80;;;17.70;77.40;;;;;;5015783;28;20133;-77
2022/06/25 06:13:26;;;;;;;5.35;2.00;;;17.70;77.40;;;;;;5013722;28;20041;-80
2022/06/25 06:15:52;;;;;;;5.15;1.98;;;17.70;77.00;;;;;;5017060;28;20479;-75
2022/06/25 06:18:18;;;;;;;6.35;2.22;;;17.60;77.70;;;;;;5012796;28;20040;-78
2022/06/25 06:20:43;;;;;;;9.60;2.95;;;17.50;78.10;;;;;;5020876;28;20073;-80
2022/06/25 06:23:09;;;;;;;7.28;3.40;;;17.40;78.90;;;;;;5008189;28;20250;-76
2022/06/25 06:25:35;;;;;;;6.85;3.63;;;17.30;79.90;;;;;;5008874;28;20116;-78
2022/06/25 06:28:00;;;;;;;7.75;3.78;;;17.10;80.40;;;;;;5008063;28;20482;-77
2022/06/25 06:30:26;;;;;;;9.18;3.75;;;17.20;81.20;;;;;;5009814;28;20033;-81
2022/06/25 06:32:52;;;;;;;5.90;3.03;;;17.10;81.60;;;;;;5008215;28;20446;-79
2022/06/25 06:35:17;;;;;;;8.73;3.70;;;17.10;81.30;;;;;;5013154;28;20128;-83
2022/06/25 06:37:43;;;;;;;9.45;4.05;;;17.20;81.70;;;;;;5011340;28;20176;-80
2022/06/25 06:40:09;;;;;;;8.82;3.55;;;17.20;81.10;;;;;;5010431;28;20046;-80
2022/06/25 06:42:35;;;;;;;10.45;3.75;;;17.20;81.10;;;;;;5008662;28;20049;-83
2022/06/25 06:45:01;;;;;;;11.73;3.78;;;17.20;81.30;;;;;;5011067;28;20495;-79
2022/06/25 06:47:26;;;;;;;7.07;2.72;;;17.20;81.40;;;;;;5008965;28;20042;-79
2022/06/25 06:49:52;;;;;;;7.45;3.30;;;17.30;81.60;;;;;;5009310;28;20029;-80
2022/06/25 06:52:18;;;;;;;6.40;2.60;;;17.30;80.80;;;;;;5008654;28;20041;-82
2022/06/25 06:54:43;;;;;;;9.68;2.97;;;17.20;81.10;;;;;;5013155;28;20049;-79
2022/06/25 06:57:09;;;;;;;6.70;2.58;;;17.10;81.40;;;;;;5012361;28;20033;-78
2022/06/25 06:59:35;;;;;;;9.55;2.78;;;17.00;81.20;;;;;;5010618;28;20095;-77
2022/06/25 07:02:00;;;;;;;8.57;2.20;;;16.90;81.00;;;;;;5013052;28;20498;-77
2022/06/25 07:04:26;;;;;;;7.97;2.20;;;16.90;81.20;;;;;;5013830;28;20044;-79
2022/06/25 07:06:52;;;;;;;5.82;2.03;;;16.90;81.60;;;;;;5012968;28;20505;-77
2022/06/25 07:09:17;;;;;;;6.85;2.03;;;17.00;81.70;;;;;;5012674;28;20428;-80
2022/06/25 07:11:43;;;;;;;8.93;2.25;;;17.30;81.50;;;;;;5012071;28;20052;-81
2022/06/25 07:14:08;;;;;;;7.70;1.95;;;17.50;80.60;;;;;;5012271;28;20048;-78
2022/06/25 07:16:35;;;;;;;8.02;2.83;;;17.50;79.70;;;;;;5019296;28;20056;-78
2022/06/25 07:19:01;;;;;;;6.40;2.33;;;17.60;79.70;;;;;;5011872;28;20378;-77
2022/06/25 07:21:28;;;;;;;12.75;3.05;;;17.90;79.00;;;;;;5013697;28;20804;-78
2022/06/25 07:23:54;;;;;;;7.95;2.38;;;18.10;78.40;;;;;;5019093;28;20033;-78
2022/06/25 07:26:21;;;;;;;8.55;1.90;;;18.60;76.00;;;;;;5018382;28;20037;-80
2022/06/25 07:28:47;;;;;;;6.55;2.17;;;18.90;73.80;;;;;;5016310;28;20030;-79
2022/06/25 07:31:13;;;;;;;7.82;2.92;;;19.00;73.60;;;;;;5018171;28;20042;-83
2022/06/25 07:33:39;;;;;;;10.45;2.40;;;18.80;73.60;;;;;;5016458;28;20467;-79
2022/06/25 07:36:07;;;;;;;9.25;3.15;;;18.70;73.20;;;;;;5020613;28;20038;-85
2022/06/25 07:38:33;;;;;;;8.02;3.90;;;18.70;74.60;;;;;;5023219;28;20041;-79
2022/06/25 07:40:59;;;;;;;9.52;4.00;;;18.70;73.50;;;;;;5029968;28;20025;-82
2022/06/25 07:43:27;;;;;;;8.63;3.80;;;18.70;74.40;;;;;;5015520;28;21431;-81
2022/06/25 07:45:53;;;;;;;7.72;3.08;;;18.90;74.20;;;;;;5012112;28;20034;-78
2022/06/25 07:48:19;;;;;;;8.93;3.08;;;19.10;72.40;;;;;;5012141;28;20046;-77
2022/06/25 07:53:29;;;;;;;8.93;4.00;;;19.60;70.80;;;;;;5011756;28;20503;-80
2022/06/25 07:55:55;;;;;;;9.73;4.65;;;20.10;71.30;;;;;;5018056;28;20037;-77
2022/06/25 07:58:23;;;;;;;8.60;3.80;;;20.40;68.60;;;;;;5015935;28;20072;-77
2022/06/25 08:00:49;;;;;;;8.48;4.10;;;20.60;69.50;;;;;;5015921;28;20069;-78
2022/06/25 08:03:15;;;;;;;7.82;4.00;;;20.80;67.60;;;;;;5014150;28;20030;-81
2022/06/25 08:05:40;;;;;;;7.95;4.55;;;20.80;66.90;;;;;;5014116;28;20063;-80
2022/06/25 08:08:06;;;;;;;9.50;4.72;;;21.10;65.70;;;;;;5016719;28;20042;-77
2022/06/25 08:10:32;;;;;;;10.02;5.00;;;21.10;66.20;;;;;;5023251;28;20764;-78
2022/06/25 08:12:58;;;;;;;7.97;4.85;;;21.20;65.30;;;;;;5019830;28;20037;-82
2022/06/25 08:15:23;;;;;;;8.88;4.72;;;20.90;67.10;;;;;;5016053;28;20730;-78
2022/06/25 08:17:49;;;;;;;9.15;4.13;;;20.80;67.40;;;;;;5017473;28;20099;-77
2022/06/25 08:20:15;;;;;;;7.30;3.10;;;20.90;67.00;;;;;;5010587;28;20116;-78
2022/06/25 08:22:40;;;;;;;7.80;2.60;;;20.90;66.90;;;;;;5009933;28;20070;-79
2022/06/25 08:25:09;;;;;;;5.47;1.88;;;20.70;67.70;;;;;;5013972;28;20076;-81
2022/06/25 08:27:50;;;;;;;8.68;2.17;;;20.60;67.00;;;;;;5014923;28;20554;-79
2022/06/25 08:30:20;;;;;;;6.25;2.28;;;20.60;66.90;;;;;;5009761;28;20048;-78
2022/06/25 08:32:46;;;;;;;6.22;2.25;;;20.60;67.70;;;;;;5014946;28;20045;-78
2022/06/25 08:35:12;;;;;;;5.25;1.70;;;20.80;67.10;;;;;;5019803;28;20087;-78
2022/06/25 08:37:39;;;;;;;6.53;2.00;;;20.70;66.00;;;;;;5015860;28;20084;-77
2022/06/25 08:40:08;;;;;;;4.60;1.45;;;20.50;67.30;;;;;;5015885;28;20047;-77
2022/06/25 08:42:34;;;;;;;3.92;1.67;;;20.40;68.00;;;;;;5019383;28;20484;-78
2022/06/25 08:45:01;;;;;;;5.47;1.70;;;20.40;68.40;;;;;;5021309;28;20059;-77
2022/06/25 08:47:26;;;;;;;5.70;2.00;;;20.80;67.30;;;;;;5017703;28;20587;-78
2022/06/25 08:49:53;;;;;;;4.97;1.40;;;20.90;65.80;;;;;;5016780;28;20469;-79
2022/06/25 08:52:19;;;;;;;7.50;1.85;;;21.00;66.50;;;;;;5012345;28;20041;-80
2022/06/25 08:54:48;;;;;;;4.05;1.65;;;21.20;67.40;;;;;;5015812;28;20041;-79
2022/06/25 08:57:15;;;;;;;5.65;1.67;;;21.40;64.70;;;;;;5019099;28;20048;-78
2022/06/25 08:59:42;;;;;;;5.93;2.00;;;21.50;65.00;;;;;;5014976;28;20037;-81
2022/06/25 09:02:08;;;;;;;6.32;1.98;;;21.50;64.90;;;;;;5013362;28;21979;-81
2022/06/25 09:04:34;;;;;;;4.63;1.63;;;21.50;66.00;;;;;;5014129;28;20033;-80
2022/06/25 09:07:13;;;;;;;5.28;1.60;;;22.00;64.30;;;;;;5023948;28;20492;-80
2022/06/25 09:09:39;;;;;;;5.65;1.83;;;22.40;61.40;;;;;;5031487;28;20041;-79
2022/06/25 09:12:08;;;;;;;6.28;1.95;;;22.60;60.80;;;;;;5021924;28;20025;-81
2022/06/25 09:14:36;;;;;;;4.78;2.53;;;22.70;61.50;;;;;;5023048;28;20045;-80
2022/06/25 09:17:04;;;;;;;4.60;1.48;;;23.00;60.70;;;;;;5019471;28;20152;-78
2022/06/25 09:19:48;;;;;;;6.13;1.55;;;23.30;58.60;;;;;;5020131;28;20065;-78
2022/06/25 09:22:18;;;;;;;4.93;1.80;;;23.30;58.30;;;;;;5018533;28;20037;-80
2022/06/25 09:24:57;;;;;;;5.82;2.00;;;22.90;59.00;;;;;;5019321;28;20045;-79
2022/06/25 09:27:36;;;;;;;6.75;1.80;;;22.80;60.20;;;;;;5015991;28;20055;-78
2022/06/25 09:30:21;;;;;;;8.20;2.28;;;22.90;58.70;;;;;;5018704;28;20456;-78
2022/06/25 09:32:55;;;;;;;6.35;1.98;;;22.90;59.50;;;;;;5019765;28;20030;-78
2022/06/25 09:35:43;;;;;;;6.07;1.90;;;23.00;58.00;;;;;;5020996;28;20503;-80
2022/06/25 09:38:16;;;;;;;5.03;1.73;;;23.20;58.40;;;;;;5021722;28;20048;-78
2022/06/25 09:40:52;;;;;;;5.63;1.67;;;23.00;59.30;;;;;;5022644;28;20127;-78
2022/06/25 09:43:20;;;;;;;3.85;1.65;;;23.10;58.00;;;;;;5017068;28;20342;-79
2022/06/25 09:45:51;;;;;;;6.70;1.70;;;23.30;58.50;;;;;;5016104;28;20498;-79
2022/06/25 09:48:23;;;;;;;6.15;1.77;;;23.50;57.30;;;;;;5009049;28;20034;-79
2022/06/25 09:51:06;;;;;;;5.85;1.52;;;23.80;56.30;;;;;;5013279;28;20103;-78
2022/06/25 09:53:34;;;;;;;5.55;1.45;;;24.00;54.50;;;;;;5020076;28;20030;-78
2022/06/25 09:56:01;;;;;;;4.50;1.40;;;23.80;55.00;;;;;;5020101;28;20026;-77
2022/06/25 09:58:27;;;;;;;5.20;1.60;;;23.80;55.50;;;;;;5017596;28;20476;-79
2022/06/25 10:00:54;;;;;;;3.85;1.27;;;23.70;54.90;;;;;;5019635;28;20025;-77
2022/06/25 10:03:21;;;;;;;3.90;1.38;;;23.50;55.90;;;;;;5017194;28;20045;-80
2022/06/25 10:05:47;;;;;;;7.07;1.60;;;23.40;56.30;;;;;;5013741;28;20059;-80
2022/06/25 10:08:15;;;;;;;7.60;1.88;;;23.40;57.20;;;;;;5015825;28;20095;-83
2022/06/25 10:10:44;;;;;;;4.15;1.67;;;23.30;56.30;;;;;;5019636;28;20142;-79
2022/06/25 10:13:10;;;;;;;5.35;1.77;;;23.30;56.30;;;;;;5014575;28;20029;-80
2022/06/25 10:15:37;;;;;;;6.97;1.60;;;23.30;57.80;;;;;;5008753;28;20137;-83
2022/06/25 10:18:09;;;;;;;4.82;1.30;;;23.60;57.10;;;;;;5012589;28;20037;-78
2022/06/25 10:20:37;;;;;;;3.60;1.48;;;23.90;55.70;;;;;;5018130;28;20036;-77
2022/06/25 10:23:05;;;;;;;6.95;1.60;;;24.50;55.00;;;;;;5020252;28;20022;-80
2022/06/25 10:25:31;;;;;;;5.50;1.50;;;24.90;54.10;;;;;;5017684;28;20080;-78
2022/06/25 10:28:12;;;;;;;3.70;1.50;;;24.80;55.90;;;;;;5015419;28;20376;-77
2022/06/25 10:30:50;;;;;;;3.55;1.38;;;25.00;53.60;;;;;;5016949;28;20038;-78
2022/06/25 10:33:27;;;;;;;4.38;1.60;;;24.90;53.00;;;;;;5021602;28;20034;-77
2022/06/25 10:35:58;;;;;;;6.57;1.55;;;25.10;52.30;;;;;;5022878;28;20392;-82
2022/06/25 10:38:27;;;;;;;6.80;1.95;;;25.40;52.70;;;;;;5019112;28;20034;-77
2022/06/25 10:43:46;;;;;;;6.00;1.73;;;25.40;51.90;;;;;;5022171;28;20094;-78
2022/06/25 10:46:33;;;;;;;4.18;1.50;;;25.20;50.60;;;;;;5022520;28;20045;-76
2022/06/25 10:49:12;;;;;;;6.55;1.70;;;24.70;51.80;;;;;;5024360;28;20080;-78
2022/06/25 10:51:49;;;;;;;5.18;1.65;;;24.60;53.60;;;;;;5020748;28;20052;-79
2022/06/25 10:54:24;;;;;;;4.93;1.90;;;24.80;52.10;;;;;;5021153;28;20092;-77
2022/06/25 10:56:52;;;;;;;6.18;1.85;;;25.00;51.80;;;;;;5023849;28;20702;-79
2022/06/25 10:59:46;;;;;;;4.68;1.65;;;25.50;51.10;;;;;;5023234;28;20420;-78
2022/06/25 11:02:14;;;;;;;2.77;1.40;;;25.40;50.30;;;;;;5018223;28;20038;-77
2022/06/25 11:04:52;;;;;;;4.68;1.70;;;25.10;51.90;;;;;;5023577;28;20033;-78
2022/06/25 11:07:23;;;;;;;7.65;1.90;;;25.50;51.30;;;;;;5022267;28;20040;-78
2022/06/25 11:09:52;;;;;;;5.30;1.45;;;25.10;49.50;;;;;;5024632;28;20060;-79
2022/06/25 11:12:18;;;;;;;4.65;1.45;;;24.70;51.00;;;;;;5019182;28;20731;-79
2022/06/25 11:14:48;;;;;;;5.88;1.60;;;25.40;50.30;;;;;;5021635;28;20052;-83
2022/06/25 11:17:14;;;;;;;4.82;1.60;;;25.80;49.50;;;;;;5017800;28;20555;-82
2022/06/25 11:19:42;;;;;;;6.55;1.80;;;26.00;48.50;;;;;;5036217;28;20037;-79
2022/06/25 11:22:08;;;;;;;5.95;1.67;;;26.00;49.80;;;;;;5031583;28;20097;-87
2022/06/25 11:24:33;;;;;;;5.88;1.90;;;26.00;48.70;;;;;;5040369;28;20022;-84
2022/06/25 11:29:53;;;;;;;4.47;1.83;;;26.00;48.60;;;;;;5006430;28;20050;-80
2022/06/25 11:32:20;;;;;;;3.90;1.33;;;26.30;47.00;;;;;;5020832;28;20080;-80
2022/06/25 11:34:54;;;;;;;5.43;1.60;;;26.20;47.80;;;;;;5019559;28;20425;-84
2022/06/25 11:37:20;;;;;;;;;;;26.30;47.90;;;;;;5031378;28;20489;-80
2022/06/25 11:39:46;;;;;;;8.07;1.92;;;26.10;46.30;;;;;;5023926;28;19944;-80
2022/06/25 11:42:13;;;;;;;7.18;1.90;;;26.10;48.20;;;;;;5017165;28;20034;-80
2022/06/25 11:44:41;;;;;;;4.88;1.80;;;25.70;46.30;;;;;;5019406;28;20033;-86
2022/06/25 11:47:06;;;;;;;4.72;1.63;;;25.80;47.40;;;;;;5020262;28;20309;-83
2022/06/25 11:49:37;;;;;;;7.25;2.00;;;25.80;47.00;;;;;;5019857;28;20791;-80
2022/06/25 11:52:04;;;;;;;4.45;1.90;;;25.70;46.60;;;;;;5016034;28;20493;-81
2022/06/25 11:54:31;;;;;;;3.67;1.80;;;25.60;47.30;;;;;;5010921;28;20577;-81
2022/06/25 11:56:57;;;;;;;4.30;1.48;;;25.60;46.30;;;;;;5019775;28;20041;-84
2022/06/25 11:59:24;;;;;;;4.53;2.03;;;25.50;46.70;;;;;;5020870;28;20033;-83
2022/06/25 12:01:50;;;;;;;5.93;2.20;;;25.50;46.90;;;;;;5014649;28;20041;-85
2022/06/25 12:04:17;;;;;;;8.18;2.05;;;25.40;46.10;;;;;;5017629;28;20509;-83
2022/06/25 12:06:42;;;;;;;5.63;2.08;;;25.40;45.50;;;;;;5016300;28;20116;-82
2022/06/25 12:09:08;;;;;;;3.53;1.70;;;25.30;44.30;;;;;;5015097;28;20459;-82
2022/06/25 12:11:34;;;;;;;6.05;2.03;;;25.20;44.40;;;;;;5019439;28;20030;-82
2022/06/25 12:14:01;;;;;;;4.63;1.77;;;25.40;45.20;;;;;;5016610;28;20067;-80
2022/06/25 12:16:43;;;;;;;4.80;2.03;;;25.60;45.30;;;;;;5020749;28;20156;-80
2022/06/25 12:19:10;;;;;;;5.55;1.95;;;25.60;45.50;;;;;;5014350;28;20037;-80
2022/06/25 12:21:36;;;;;;;6.43;2.00;;;25.80;45.10;;;;;;5011101;28;20445;-81
2022/06/25 12:24:03;;;;;;;4.80;1.80;;;25.40;46.10;;;;;;5016647;28;20045;-82
2022/06/25 12:26:33;;;;;;;9.75;2.80;;;25.60;46.30;;;;;;5017135;28;20033;-80
2022/06/25 12:29:28;;;;;;;5.35;1.75;;;25.60;45.10;;;;;;5016341;28;20117;-82
2022/06/25 12:31:56;;;;;;;7.22;2.20;;;25.70;44.70;;;;;;4996135;28;20388;-79
2022/06/25 12:34:23;;;;;;;4.32;1.90;;;25.70;45.60;;;;;;5014370;28;20477;-79
2022/06/25 12:36:49;;;;;;;6.32;2.10;;;25.60;45.50;;;;;;5015467;28;20404;-80
2022/06/25 12:39:28;;;;;;;5.38;2.38;;;25.60;45.40;;;;;;5021032;28;20199;-81
2022/06/25 12:41:54;;;;;;;5.28;1.90;;;25.40;45.20;;;;;;5016819;28;20068;-81
2022/06/25 12:44:20;;;;;;;4.55;1.83;;;25.30;46.50;;;;;;5013749;28;20116;-81
2022/06/25 12:47:07;;;;;;;5.32;1.70;;;25.00;45.60;;;;;;5012807;28;20353;-80
2022/06/25 12:49:45;;;;;;;5.13;1.75;;;24.90;46.80;;;;;;5005929;28;20056;-82
2022/06/25 12:52:12;;;;;;;4.57;1.90;;;24.90;46.60;;;;;;5018373;28;20033;-82
2022/06/25 12:54:41;;;;;;;5.68;2.10;;;24.90;48.00;;;;;;5019270;28;20120;-81
2022/06/25 12:57:06;;;;;;;17.48;3.60;;;24.60;47.80;;;;;;5013702;28;20042;-81
2022/06/25 12:59:32;;;;;;;5.13;1.95;;;24.50;47.70;;;;;;5029975;28;20090;-85
2022/06/25 13:01:58;;;;;;;4.65;1.88;;;24.50;46.30;;;;;;5045029;28;20036;-82
2022/06/25 13:04:23;;;;;;;7.78;2.80;;;24.20;47.70;;;;;;5024495;28;20045;-81